sensor_id;sensor_type;location;lat;lon;timestamp;P1;durP1;ratioP1;P2;durP2;ratioP2
16310;SDS011;8264;48.510;8.872;2023-04-08T00:01:47;6.20;;;5.60;;
16310;SDS011;8264;48.510;8.872;2023-04-08T00:04:14;7.57;;;5.00;;
16310;SDS011;8264;48.510;8.872;2023-04-08T00:06:40;5.80;;;5.20;;
16310;SDS011;8264;48.510;8.872;2023-04-08T00:09:07;7.40;;;5.37;;
16310;SDS011;8264;48.510;8.872;2023-04-08T00:11:34;5.40;;;4.90;;
16310;SDS011;8264;48.510;8.872;2023-04-08T00:14:02;5.97;;;5.40;;
16310;SDS011;8264;48.510;8.872;2023-04-08T00:16:29;8.10;;;5.37;;
16310;SDS011;8264;48.510;8.872;2023-04-08T00:18:55;6.40;;;5.13;;
16310;SDS011;8264;48.510;8.872;2023-04-08T00:21:22;6.00;;;4.97;;
16310;SDS011;8264;48.510;8.872;2023-04-08T00:23:48;7.30;;;5.30;;
16310;SDS011;8264;48.510;8.872;2023-04-08T00:26:14;6.07;;;5.30;;
16310;SDS011;8264;48.510;8.872;2023-04-08T00:28:42;7.40;;;6.30;;
16310;SDS011;8264;48.510;8.872;2023-04-08T00:31:09;5.23;;;4.57;;
16310;SDS011;8264;48.510;8.872;2023-04-08T00:33:36;5.83;;;5.07;;
16310;SDS011;8264;48.510;8.872;2023-04-08T00:36:02;9.33;;;5.03;;
16310;SDS011;8264;48.510;8.872;2023-04-08T00:38:29;5.50;;;5.00;;
16310;SDS011;8264;48.510;8.872;2023-04-08T00:40:55;5.97;;;5.33;;
16310;SDS011;8264;48.510;8.872;2023-04-08T00:43:22;7.33;;;5.03;;
16310;SDS011;8264;48.510;8.872;2023-04-08T00:45:50;6.20;;;5.60;;
16310;SDS011;8264;48.510;8.872;2023-04-08T00:48:17;5.07;;;4.30;;
16310;SDS011;8264;48.510;8.872;2023-04-08T00:50:43;4.93;;;4.53;;
16310;SDS011;8264;48.510;8.872;2023-04-08T00:53:11;6.60;;;4.83;;
16310;SDS011;8264;48.510;8.872;2023-04-08T00:55:38;5.93;;;5.00;;
16310;SDS011;8264;48.510;8.872;2023-04-08T00:58:04;5.57;;;5.07;;
16310;SDS011;8264;48.510;8.872;2023-04-08T01:00:30;5.70;;;5.10;;
16310;SDS011;8264;48.510;8.872;2023-04-08T01:03:00;5.40;;;4.77;;
16310;SDS011;8264;48.510;8.872;2023-04-08T01:05:34;6.13;;;4.97;;
16310;SDS011;8264;48.510;8.872;2023-04-08T01:08:03;5.40;;;4.83;;
16310;SDS011;8264;48.510;8.872;2023-04-08T01:10:32;6.23;;;5.07;;
16310;SDS011;8264;48.510;8.872;2023-04-08T01:13:00;6.00;;;5.17;;
16310;SDS011;8264;48.510;8.872;2023-04-08T01:15:29;7.70;;;5.47;;
16310;SDS011;8264;48.510;8.872;2023-04-08T01:17:57;7.93;;;6.63;;
16310;SDS011;8264;48.510;8.872;2023-04-08T01:20:26;10.83;;;8.17;;
16310;SDS011;8264;48.510;8.872;2023-04-08T01:22:59;9.53;;;7.87;;
16310;SDS011;8264;48.510;8.872;2023-04-08T01:25:29;13.17;;;8.97;;
16310;SDS011;8264;48.510;8.872;2023-04-08T01:27:58;11.47;;;9.43;;
16310;SDS011;8264;48.510;8.872;2023-04-08T01:30:26;12.63;;;9.77;;
16310;SDS011;8264;48.510;8.872;2023-04-08T01:32:54;11.93;;;10.43;;
16310;SDS011;8264;48.510;8.872;2023-04-08T01:35:22;13.00;;;10.43;;
16310;SDS011;8264;48.510;8.872;2023-04-08T01:37:49;13.50;;;11.00;;
16310;SDS011;8264;48.510;8.872;2023-04-08T01:40:16;15.07;;;11.37;;
16310;SDS011;8264;48.510;8.872;2023-04-08T01:42:44;15.53;;;12.37;;
16310;SDS011;8264;48.510;8.872;2023-04-08T01:45:12;15.23;;;11.63;;
16310;SDS011;8264;48.510;8.872;2023-04-08T01:47:39;16.73;;;13.10;;
16310;SDS011;8264;48.510;8.872;2023-04-08T01:50:07;15.70;;;12.90;;
16310;SDS011;8264;48.510;8.872;2023-04-08T01:52:34;16.20;;;13.50;;
16310;SDS011;8264;48.510;8.872;2023-04-08T01:55:03;16.23;;;13.47;;
16310;SDS011;8264;48.510;8.872;2023-04-08T01:57:30;16.77;;;13.17;;
16310;SDS011;8264;48.510;8.872;2023-04-08T01:59:59;17.50;;;14.13;;
16310;SDS011;8264;48.510;8.872;2023-04-08T02:02:28;17.27;;;14.47;;
16310;SDS011;8264;48.510;8.872;2023-04-08T02:04:56;15.70;;;13.97;;
16310;SDS011;8264;48.510;8.872;2023-04-08T02:07:22;17.13;;;13.53;;
16310;SDS011;8264;48.510;8.872;2023-04-08T02:09:49;20.03;;;15.17;;
16310;SDS011;8264;48.510;8.872;2023-04-08T02:12:15;19.10;;;14.30;;
16310;SDS011;8264;48.510;8.872;2023-04-08T02:14:42;19.47;;;15.20;;
16310;SDS011;8264;48.510;8.872;2023-04-08T02:17:09;21.30;;;14.57;;
16310;SDS011;8264;48.510;8.872;2023-04-08T02:19:40;21.10;;;15.67;;
16310;SDS011;8264;48.510;8.872;2023-04-08T02:22:11;17.83;;;14.40;;
16310;SDS011;8264;48.510;8.872;2023-04-08T02:24:42;19.40;;;15.33;;
16310;SDS011;8264;48.510;8.872;2023-04-08T02:27:09;20.30;;;15.73;;
16310;SDS011;8264;48.510;8.872;2023-04-08T02:29:36;20.20;;;16.60;;
16310;SDS011;8264;48.510;8.872;2023-04-08T02:32:05;20.80;;;15.93;;
16310;SDS011;8264;48.510;8.872;2023-04-08T02:34:31;19.60;;;14.47;;
16310;SDS011;8264;48.510;8.872;2023-04-08T02:37:02;20.63;;;15.77;;
16310;SDS011;8264;48.510;8.872;2023-04-08T02:39:31;21.63;;;16.67;;
16310;SDS011;8264;48.510;8.872;2023-04-08T02:41:58;20.83;;;16.57;;
16310;SDS011;8264;48.510;8.872;2023-04-08T02:44:25;20.33;;;16.40;;
16310;SDS011;8264;48.510;8.872;2023-04-08T02:46:51;22.40;;;16.27;;
16310;SDS011;8264;48.510;8.872;2023-04-08T02:49:18;19.07;;;15.50;;
16310;SDS011;8264;48.510;8.872;2023-04-08T02:51:44;21.80;;;16.97;;
16310;SDS011;8264;48.510;8.872;2023-04-08T02:54:12;18.33;;;15.83;;
16310;SDS011;8264;48.510;8.872;2023-04-08T02:56:39;21.17;;;16.97;;
16310;SDS011;8264;48.510;8.872;2023-04-08T02:59:05;20.80;;;15.70;;
16310;SDS011;8264;48.510;8.872;2023-04-08T03:01:32;20.33;;;15.93;;
16310;SDS011;8264;48.510;8.872;2023-04-08T03:03:58;20.90;;;15.30;;
16310;SDS011;8264;48.510;8.872;2023-04-08T03:06:25;20.60;;;15.97;;
16310;SDS011;8264;48.510;8.872;2023-04-08T03:08:51;21.33;;;16.33;;
16310;SDS011;8264;48.510;8.872;2023-04-08T03:11:19;19.63;;;14.93;;
16310;SDS011;8264;48.510;8.872;2023-04-08T03:13:46;19.40;;;15.07;;
16310;SDS011;8264;48.510;8.872;2023-04-08T03:16:12;18.30;;;14.23;;
16310;SDS011;8264;48.510;8.872;2023-04-08T03:18:39;19.53;;;14.47;;
16310;SDS011;8264;48.510;8.872;2023-04-08T03:21:06;19.37;;;13.83;;
16310;SDS011;8264;48.510;8.872;2023-04-08T03:23:32;18.13;;;13.67;;
16310;SDS011;8264;48.510;8.872;2023-04-08T03:25:59;18.27;;;13.83;;
16310;SDS011;8264;48.510;8.872;2023-04-08T03:28:26;18.07;;;13.50;;
16310;SDS011;8264;48.510;8.872;2023-04-08T03:30:53;20.30;;;14.47;;
16310;SDS011;8264;48.510;8.872;2023-04-08T03:33:19;18.00;;;13.00;;
16310;SDS011;8264;48.510;8.872;2023-04-08T03:35:46;19.77;;;14.00;;
16310;SDS011;8264;48.510;8.872;2023-04-08T03:38:12;19.00;;;14.27;;
16310;SDS011;8264;48.510;8.872;2023-04-08T03:40:39;19.03;;;13.40;;
16310;SDS011;8264;48.510;8.872;2023-04-08T03:43:05;18.30;;;13.97;;
16310;SDS011;8264;48.510;8.872;2023-04-08T03:45:34;18.40;;;14.30;;
16310;SDS011;8264;48.510;8.872;2023-04-08T03:48:00;18.20;;;14.27;;
16310;SDS011;8264;48.510;8.872;2023-04-08T03:50:27;18.00;;;13.83;;
16310;SDS011;8264;48.510;8.872;2023-04-08T03:52:53;15.70;;;12.97;;
16310;SDS011;8264;48.510;8.872;2023-04-08T03:55:20;17.57;;;12.87;;
16310;SDS011;8264;48.510;8.872;2023-04-08T03:57:46;17.23;;;12.87;;
16310;SDS011;8264;48.510;8.872;2023-04-08T04:00:13;16.03;;;11.70;;
16310;SDS011;8264;48.510;8.872;2023-04-08T04:02:41;15.50;;;11.73;;
16310;SDS011;8264;48.510;8.872;2023-04-08T04:05:08;15.93;;;12.33;;
16310;SDS011;8264;48.510;8.872;2023-04-08T04:07:34;15.47;;;11.00;;
16310;SDS011;8264;48.510;8.872;2023-04-08T04:10:01;15.80;;;10.93;;
16310;SDS011;8264;48.510;8.872;2023-04-08T04:12:27;14.47;;;10.13;;
16310;SDS011;8264;48.510;8.872;2023-04-08T04:14:54;16.83;;;12.67;;
16310;SDS011;8264;48.510;8.872;2023-04-08T04:17:20;16.20;;;11.83;;
16310;SDS011;8264;48.510;8.872;2023-04-08T04:19:48;17.23;;;13.13;;
16310;SDS011;8264;48.510;8.872;2023-04-08T04:22:15;15.90;;;12.70;;
16310;SDS011;8264;48.510;8.872;2023-04-08T04:24:45;13.47;;;11.10;;
16310;SDS011;8264;48.510;8.872;2023-04-08T04:27:12;13.33;;;9.77;;
16310;SDS011;8264;48.510;8.872;2023-04-08T04:29:38;11.53;;;10.07;;
16310;SDS011;8264;48.510;8.872;2023-04-08T04:32:05;12.37;;;10.07;;
16310;SDS011;8264;48.510;8.872;2023-04-08T04:34:31;11.73;;;10.10;;
16310;SDS011;8264;48.510;8.872;2023-04-08T04:36:59;12.47;;;9.17;;
16310;SDS011;8264;48.510;8.872;2023-04-08T04:39:26;10.57;;;9.20;;
16310;SDS011;8264;48.510;8.872;2023-04-08T04:41:53;14.13;;;9.13;;
16310;SDS011;8264;48.510;8.872;2023-04-08T04:44:19;10.10;;;8.80;;
16310;SDS011;8264;48.510;8.872;2023-04-08T04:46:45;9.30;;;8.30;;
16310;SDS011;8264;48.510;8.872;2023-04-08T04:49:12;10.43;;;8.53;;
16310;SDS011;8264;48.510;8.872;2023-04-08T04:51:38;8.87;;;7.97;;
16310;SDS011;8264;48.510;8.872;2023-04-08T04:54:06;9.50;;;8.50;;
16310;SDS011;8264;48.510;8.872;2023-04-08T04:56:33;9.73;;;8.33;;
16310;SDS011;8264;48.510;8.872;2023-04-08T04:58:59;9.80;;;8.13;;
16310;SDS011;8264;48.510;8.872;2023-04-08T05:01:26;10.13;;;8.30;;
16310;SDS011;8264;48.510;8.872;2023-04-08T05:03:53;9.47;;;8.13;;
16310;SDS011;8264;48.510;8.872;2023-04-08T05:06:19;9.30;;;8.30;;
16310;SDS011;8264;48.510;8.872;2023-04-08T05:08:46;8.10;;;7.13;;
16310;SDS011;8264;48.510;8.872;2023-04-08T05:11:13;8.93;;;7.43;;
16310;SDS011;8264;48.510;8.872;2023-04-08T05:13:42;8.87;;;7.63;;
16310;SDS011;8264;48.510;8.872;2023-04-08T05:16:09;8.33;;;7.40;;
16310;SDS011;8264;48.510;8.872;2023-04-08T05:18:35;8.17;;;7.23;;
16310;SDS011;8264;48.510;8.872;2023-04-08T05:21:02;9.30;;;7.70;;
16310;SDS011;8264;48.510;8.872;2023-04-08T05:23:28;9.60;;;7.77;;
16310;SDS011;8264;48.510;8.872;2023-04-08T05:25:55;9.90;;;8.33;;
16310;SDS011;8264;48.510;8.872;2023-04-08T05:28:23;8.73;;;7.60;;
16310;SDS011;8264;48.510;8.872;2023-04-08T05:30:49;8.77;;;7.67;;
16310;SDS011;8264;48.510;8.872;2023-04-08T05:33:16;7.73;;;6.93;;
16310;SDS011;8264;48.510;8.872;2023-04-08T05:35:42;7.90;;;7.10;;
16310;SDS011;8264;48.510;8.872;2023-04-08T05:38:09;8.13;;;7.30;;
16310;SDS011;8264;48.510;8.872;2023-04-08T05:40:36;8.23;;;7.40;;
16310;SDS011;8264;48.510;8.872;2023-04-08T05:43:02;10.00;;;5.63;;
16310;SDS011;8264;48.510;8.872;2023-04-08T05:47:58;7.13;;;6.00;;
16310;SDS011;8264;48.510;8.872;2023-04-08T05:50:24;9.60;;;6.33;;
16310;SDS011;8264;48.510;8.872;2023-04-08T05:52:51;10.63;;;6.20;;
16310;SDS011;8264;48.510;8.872;2023-04-08T05:55:17;7.97;;;6.53;;
16310;SDS011;8264;48.510;8.872;2023-04-08T05:57:44;7.30;;;6.37;;
16310;SDS011;8264;48.510;8.872;2023-04-08T06:00:11;6.93;;;6.23;;
16310;SDS011;8264;48.510;8.872;2023-04-08T06:02:39;8.40;;;5.77;;
16310;SDS011;8264;48.510;8.872;2023-04-08T06:05:06;7.17;;;6.47;;
16310;SDS011;8264;48.510;8.872;2023-04-08T06:07:33;7.13;;;6.40;;
16310;SDS011;8264;48.510;8.872;2023-04-08T06:09:59;7.33;;;6.10;;
16310;SDS011;8264;48.510;8.872;2023-04-08T06:12:26;6.90;;;6.20;;
16310;SDS011;8264;48.510;8.872;2023-04-08T06:14:52;7.63;;;6.77;;
16310;SDS011;8264;48.510;8.872;2023-04-08T06:17:19;7.73;;;6.80;;
16310;SDS011;8264;48.510;8.872;2023-04-08T06:19:47;6.10;;;5.47;;
16310;SDS011;8264;48.510;8.872;2023-04-08T06:22:14;6.73;;;5.63;;
16310;SDS011;8264;48.510;8.872;2023-04-08T06:24:40;7.80;;;5.87;;
16310;SDS011;8264;48.510;8.872;2023-04-08T06:27:06;7.93;;;6.27;;
16310;SDS011;8264;48.510;8.872;2023-04-08T06:29:33;6.83;;;6.17;;
16310;SDS011;8264;48.510;8.872;2023-04-08T06:31:59;7.87;;;6.70;;
16310;SDS011;8264;48.510;8.872;2023-04-08T06:34:26;7.83;;;6.50;;
16310;SDS011;8264;48.510;8.872;2023-04-08T06:36:54;7.60;;;6.80;;
16310;SDS011;8264;48.510;8.872;2023-04-08T06:39:20;7.40;;;6.57;;
16310;SDS011;8264;48.510;8.872;2023-04-08T06:41:47;7.03;;;6.33;;
16310;SDS011;8264;48.510;8.872;2023-04-08T06:44:13;6.83;;;5.43;;
16310;SDS011;8264;48.510;8.872;2023-04-08T06:46:40;6.70;;;5.97;;
16310;SDS011;8264;48.510;8.872;2023-04-08T06:49:06;5.83;;;4.70;;
16310;SDS011;8264;48.510;8.872;2023-04-08T06:51:33;8.23;;;5.43;;
16310;SDS011;8264;48.510;8.872;2023-04-08T06:54:01;5.90;;;4.97;;
16310;SDS011;8264;48.510;8.872;2023-04-08T06:56:28;7.33;;;6.20;;
16310;SDS011;8264;48.510;8.872;2023-04-08T06:58:54;8.63;;;5.97;;
16310;SDS011;8264;48.510;8.872;2023-04-08T07:01:21;8.33;;;7.47;;
16310;SDS011;8264;48.510;8.872;2023-04-08T07:03:48;8.57;;;7.10;;
16310;SDS011;8264;48.510;8.872;2023-04-08T07:06:15;10.90;;;5.97;;
16310;SDS011;8264;48.510;8.872;2023-04-08T07:08:42;9.07;;;6.87;;
16310;SDS011;8264;48.510;8.872;2023-04-08T07:11:09;7.43;;;6.60;;
16310;SDS011;8264;48.510;8.872;2023-04-08T07:13:36;7.73;;;6.83;;
16310;SDS011;8264;48.510;8.872;2023-04-08T07:16:02;9.43;;;6.67;;
16310;SDS011;8264;48.510;8.872;2023-04-08T07:18:30;8.83;;;7.77;;
16310;SDS011;8264;48.510;8.872;2023-04-08T07:20:56;9.83;;;7.67;;
16310;SDS011;8264;48.510;8.872;2023-04-08T07:23:25;9.43;;;8.37;;
16310;SDS011;8264;48.510;8.872;2023-04-08T07:25:51;8.67;;;7.77;;
16310;SDS011;8264;48.510;8.872;2023-04-08T07:28:19;9.20;;;8.13;;
16310;SDS011;8264;48.510;8.872;2023-04-08T07:30:46;10.17;;;8.80;;
16310;SDS011;8264;48.510;8.872;2023-04-08T07:33:12;9.43;;;7.90;;
16310;SDS011;8264;48.510;8.872;2023-04-08T07:35:39;10.60;;;8.43;;
16310;SDS011;8264;48.510;8.872;2023-04-08T07:38:06;9.33;;;8.37;;
16310;SDS011;8264;48.510;8.872;2023-04-08T07:40:35;7.87;;;7.00;;
16310;SDS011;8264;48.510;8.872;2023-04-08T07:43:02;8.37;;;7.07;;
16310;SDS011;8264;48.510;8.872;2023-04-08T07:45:29;8.30;;;7.40;;
16310;SDS011;8264;48.510;8.872;2023-04-08T07:47:56;10.60;;;7.70;;
16310;SDS011;8264;48.510;8.872;2023-04-08T07:50:22;11.03;;;8.53;;
16310;SDS011;8264;48.510;8.872;2023-04-08T07:52:49;9.90;;;7.83;;
16310;SDS011;8264;48.510;8.872;2023-04-08T07:55:17;9.93;;;8.43;;
16310;SDS011;8264;48.510;8.872;2023-04-08T07:57:43;9.33;;;7.90;;
16310;SDS011;8264;48.510;8.872;2023-04-08T08:00:10;9.33;;;8.00;;
16310;SDS011;8264;48.510;8.872;2023-04-08T08:02:46;9.70;;;7.83;;
16310;SDS011;8264;48.510;8.872;2023-04-08T08:05:13;10.30;;;8.50;;
16310;SDS011;8264;48.510;8.872;2023-04-08T08:07:39;9.00;;;8.10;;
16310;SDS011;8264;48.510;8.872;2023-04-08T08:10:06;9.73;;;7.57;;
16310;SDS011;8264;48.510;8.872;2023-04-08T08:12:33;9.27;;;8.23;;
16310;SDS011;8264;48.510;8.872;2023-04-08T08:15:00;8.00;;;7.13;;
16310;SDS011;8264;48.510;8.872;2023-04-08T08:17:26;9.40;;;7.87;;
16310;SDS011;8264;48.510;8.872;2023-04-08T08:19:56;9.73;;;7.80;;
16310;SDS011;8264;48.510;8.872;2023-04-08T08:22:22;8.80;;;7.90;;
16310;SDS011;8264;48.510;8.872;2023-04-08T08:24:53;9.10;;;8.10;;
16310;SDS011;8264;48.510;8.872;2023-04-08T08:27:20;9.60;;;7.87;;
16310;SDS011;8264;48.510;8.872;2023-04-08T08:29:47;8.40;;;7.33;;
16310;SDS011;8264;48.510;8.872;2023-04-08T08:32:13;9.30;;;7.93;;
16310;SDS011;8264;48.510;8.872;2023-04-08T08:34:40;11.57;;;9.37;;
16310;SDS011;8264;48.510;8.872;2023-04-08T08:37:08;9.83;;;7.80;;
16310;SDS011;8264;48.510;8.872;2023-04-08T08:39:34;9.80;;;8.33;;
16310;SDS011;8264;48.510;8.872;2023-04-08T08:42:01;11.63;;;9.33;;
16310;SDS011;8264;48.510;8.872;2023-04-08T08:44:28;10.43;;;8.70;;
16310;SDS011;8264;48.510;8.872;2023-04-08T08:46:55;9.57;;;8.57;;
16310;SDS011;8264;48.510;8.872;2023-04-08T08:49:22;9.40;;;8.13;;
16310;SDS011;8264;48.510;8.872;2023-04-08T08:51:48;11.33;;;8.93;;
16310;SDS011;8264;48.510;8.872;2023-04-08T08:54:17;10.27;;;8.47;;
16310;SDS011;8264;48.510;8.872;2023-04-08T08:56:43;9.27;;;8.27;;
16310;SDS011;8264;48.510;8.872;2023-04-08T08:59:09;9.20;;;8.00;;
16310;SDS011;8264;48.510;8.872;2023-04-08T09:01:37;10.87;;;7.70;;
16310;SDS011;8264;48.510;8.872;2023-04-08T09:04:05;8.93;;;7.63;;
16310;SDS011;8264;48.510;8.872;2023-04-08T09:06:40;10.67;;;8.53;;
16310;SDS011;8264;48.510;8.872;2023-04-08T09:09:07;7.97;;;7.17;;
16310;SDS011;8264;48.510;8.872;2023-04-08T09:11:41;8.03;;;6.80;;
16310;SDS011;8264;48.510;8.872;2023-04-08T09:14:18;8.83;;;7.33;;
16310;SDS011;8264;48.510;8.872;2023-04-08T09:16:45;8.30;;;7.40;;
16310;SDS011;8264;48.510;8.872;2023-04-08T09:19:12;10.10;;;8.43;;
16310;SDS011;8264;48.510;8.872;2023-04-08T09:21:39;10.93;;;7.67;;
16310;SDS011;8264;48.510;8.872;2023-04-08T09:24:05;8.73;;;6.83;;
16310;SDS011;8264;48.510;8.872;2023-04-08T09:26:32;8.77;;;6.93;;
16310;SDS011;8264;48.510;8.872;2023-04-08T09:29:01;9.23;;;8.33;;
16310;SDS011;8264;48.510;8.872;2023-04-08T09:31:28;9.93;;;8.07;;
16310;SDS011;8264;48.510;8.872;2023-04-08T09:33:56;8.97;;;7.73;;
16310;SDS011;8264;48.510;8.872;2023-04-08T09:36:24;11.47;;;8.17;;
16310;SDS011;8264;48.510;8.872;2023-04-08T09:38:52;9.73;;;8.40;;
16310;SDS011;8264;48.510;8.872;2023-04-08T09:41:19;10.10;;;7.77;;
16310;SDS011;8264;48.510;8.872;2023-04-08T09:43:48;9.53;;;8.37;;
16310;SDS011;8264;48.510;8.872;2023-04-08T09:46:17;11.50;;;8.30;;
16310;SDS011;8264;48.510;8.872;2023-04-08T09:48:48;8.80;;;7.50;;
16310;SDS011;8264;48.510;8.872;2023-04-08T09:51:17;9.57;;;7.93;;
16310;SDS011;8264;48.510;8.872;2023-04-08T09:53:45;10.50;;;7.87;;
16310;SDS011;8264;48.510;8.872;2023-04-08T09:56:13;8.93;;;7.90;;
16310;SDS011;8264;48.510;8.872;2023-04-08T09:58:41;9.50;;;8.50;;
16310;SDS011;8264;48.510;8.872;2023-04-08T10:01:21;10.37;;;8.47;;
16310;SDS011;8264;48.510;8.872;2023-04-08T10:03:51;8.90;;;8.00;;
16310;SDS011;8264;48.510;8.872;2023-04-08T10:06:21;9.17;;;8.17;;
16310;SDS011;8264;48.510;8.872;2023-04-08T10:08:47;10.13;;;7.97;;
16310;SDS011;8264;48.510;8.872;2023-04-08T10:11:14;9.93;;;8.40;;
16310;SDS011;8264;48.510;8.872;2023-04-08T10:13:41;9.40;;;7.93;;
16310;SDS011;8264;48.510;8.872;2023-04-08T10:16:19;11.53;;;8.33;;
16310;SDS011;8264;48.510;8.872;2023-04-08T10:18:46;8.80;;;7.90;;
16310;SDS011;8264;48.510;8.872;2023-04-08T10:24:05;11.77;;;8.70;;
16310;SDS011;8264;48.510;8.872;2023-04-08T10:26:33;10.03;;;8.50;;
16310;SDS011;8264;48.510;8.872;2023-04-08T10:32:11;9.97;;;8.40;;
16310;SDS011;8264;48.510;8.872;2023-04-08T10:34:53;11.20;;;8.27;;
16310;SDS011;8264;48.510;8.872;2023-04-08T10:37:20;10.43;;;8.00;;
16310;SDS011;8264;48.510;8.872;2023-04-08T10:39:49;9.53;;;8.53;;
16310;SDS011;8264;48.510;8.872;2023-04-08T10:42:17;9.77;;;8.73;;
16310;SDS011;8264;48.510;8.872;2023-04-08T10:44:43;9.17;;;7.97;;
16310;SDS011;8264;48.510;8.872;2023-04-08T10:47:12;8.70;;;7.80;;
16310;SDS011;8264;48.510;8.872;2023-04-08T10:49:39;9.50;;;8.27;;
16310;SDS011;8264;48.510;8.872;2023-04-08T10:52:06;11.13;;;8.57;;
16310;SDS011;8264;48.510;8.872;2023-04-08T10:54:33;11.10;;;8.87;;
16310;SDS011;8264;48.510;8.872;2023-04-08T10:56:59;11.57;;;9.43;;
16310;SDS011;8264;48.510;8.872;2023-04-08T10:59:26;10.97;;;8.40;;
16310;SDS011;8264;48.510;8.872;2023-04-08T11:01:54;11.20;;;9.23;;
16310;SDS011;8264;48.510;8.872;2023-04-08T11:04:23;12.20;;;9.10;;
16310;SDS011;8264;48.510;8.872;2023-04-08T11:06:51;11.73;;;8.80;;
16310;SDS011;8264;48.510;8.872;2023-04-08T11:09:17;9.90;;;8.90;;
16310;SDS011;8264;48.510;8.872;2023-04-08T11:11:45;12.27;;;9.03;;
16310;SDS011;8264;48.510;8.872;2023-04-08T11:14:12;11.53;;;9.10;;
16310;SDS011;8264;48.510;8.872;2023-04-08T11:16:38;10.90;;;9.30;;
16310;SDS011;8264;48.510;8.872;2023-04-08T11:19:06;10.30;;;9.23;;
16310;SDS011;8264;48.510;8.872;2023-04-08T11:21:35;12.00;;;9.57;;
16310;SDS011;8264;48.510;8.872;2023-04-08T11:24:05;10.40;;;9.30;;
16310;SDS011;8264;48.510;8.872;2023-04-08T11:26:33;11.37;;;9.73;;
16310;SDS011;8264;48.510;8.872;2023-04-08T11:29:00;10.80;;;9.23;;
16310;SDS011;8264;48.510;8.872;2023-04-08T11:31:27;11.23;;;9.50;;
16310;SDS011;8264;48.510;8.872;2023-04-08T11:33:55;11.40;;;9.30;;
16310;SDS011;8264;48.510;8.872;2023-04-08T11:36:22;13.23;;;8.90;;
16310;SDS011;8264;48.510;8.872;2023-04-08T11:38:52;10.87;;;9.37;;
16310;SDS011;8264;48.510;8.872;2023-04-08T11:41:19;11.87;;;9.57;;
16310;SDS011;8264;48.510;8.872;2023-04-08T11:43:50;10.53;;;9.07;;
16310;SDS011;8264;48.510;8.872;2023-04-08T11:46:17;11.87;;;9.43;;
16310;SDS011;8264;48.510;8.872;2023-04-08T11:48:55;11.73;;;9.40;;
16310;SDS011;8264;48.510;8.872;2023-04-08T11:51:25;10.73;;;9.63;;
16310;SDS011;8264;48.510;8.872;2023-04-08T11:53:54;10.60;;;9.13;;
16310;SDS011;8264;48.510;8.872;2023-04-08T11:56:21;11.53;;;9.30;;
16310;SDS011;8264;48.510;8.872;2023-04-08T11:58:48;12.87;;;10.43;;
16310;SDS011;8264;48.510;8.872;2023-04-08T12:01:15;11.00;;;9.33;;
16310;SDS011;8264;48.510;8.872;2023-04-08T12:03:55;11.83;;;9.53;;
16310;SDS011;8264;48.510;8.872;2023-04-08T12:06:22;10.27;;;9.20;;
16310;SDS011;8264;48.510;8.872;2023-04-08T12:08:51;12.30;;;9.37;;
16310;SDS011;8264;48.510;8.872;2023-04-08T12:11:19;10.63;;;9.07;;
16310;SDS011;8264;48.510;8.872;2023-04-08T12:13:46;13.00;;;10.03;;
16310;SDS011;8264;48.510;8.872;2023-04-08T12:16:13;12.40;;;9.77;;
16310;SDS011;8264;48.510;8.872;2023-04-08T12:18:40;14.20;;;10.20;;
16310;SDS011;8264;48.510;8.872;2023-04-08T12:21:06;12.80;;;10.13;;
16310;SDS011;8264;48.510;8.872;2023-04-08T12:23:33;12.30;;;9.67;;
16310;SDS011;8264;48.510;8.872;2023-04-08T12:26:00;11.63;;;9.80;;
16310;SDS011;8264;48.510;8.872;2023-04-08T12:28:27;12.50;;;9.90;;
16310;SDS011;8264;48.510;8.872;2023-04-08T12:30:54;12.00;;;9.53;;
16310;SDS011;8264;48.510;8.872;2023-04-08T12:33:20;13.07;;;9.57;;
16310;SDS011;8264;48.510;8.872;2023-04-08T12:35:47;11.40;;;9.93;;
16310;SDS011;8264;48.510;8.872;2023-04-08T12:38:13;10.47;;;9.37;;
16310;SDS011;8264;48.510;8.872;2023-04-08T12:40:40;10.97;;;9.60;;
16310;SDS011;8264;48.510;8.872;2023-04-08T12:43:06;10.17;;;8.50;;
16310;SDS011;8264;48.510;8.872;2023-04-08T12:45:34;10.47;;;9.30;;
16310;SDS011;8264;48.510;8.872;2023-04-08T12:48:00;10.20;;;8.87;;
16310;SDS011;8264;48.510;8.872;2023-04-08T12:50:27;11.60;;;8.53;;
16310;SDS011;8264;48.510;8.872;2023-04-08T12:52:53;13.67;;;10.10;;
16310;SDS011;8264;48.510;8.872;2023-04-08T12:55:20;12.37;;;9.60;;
16310;SDS011;8264;48.510;8.872;2023-04-08T12:57:49;13.03;;;10.20;;
16310;SDS011;8264;48.510;8.872;2023-04-08T13:00:15;11.63;;;9.23;;
16310;SDS011;8264;48.510;8.872;2023-04-08T13:02:43;11.43;;;9.90;;
16310;SDS011;8264;48.510;8.872;2023-04-08T13:05:10;13.63;;;10.40;;
16310;SDS011;8264;48.510;8.872;2023-04-08T13:07:36;12.00;;;9.20;;
16310;SDS011;8264;48.510;8.872;2023-04-08T13:10:03;14.63;;;9.30;;
16310;SDS011;8264;48.510;8.872;2023-04-08T13:12:31;11.53;;;9.20;;
16310;SDS011;8264;48.510;8.872;2023-04-08T13:14:57;12.77;;;10.20;;
16310;SDS011;8264;48.510;8.872;2023-04-08T13:17:24;12.53;;;9.77;;
16310;SDS011;8264;48.510;8.872;2023-04-08T13:19:52;11.17;;;9.97;;
16310;SDS011;8264;48.510;8.872;2023-04-08T13:22:18;11.53;;;10.20;;
16310;SDS011;8264;48.510;8.872;2023-04-08T13:24:45;10.73;;;9.20;;
16310;SDS011;8264;48.510;8.872;2023-04-08T13:27:11;12.90;;;9.93;;
16310;SDS011;8264;48.510;8.872;2023-04-08T13:29:38;11.47;;;9.67;;
16310;SDS011;8264;48.510;8.872;2023-04-08T13:32:04;10.63;;;9.50;;
16310;SDS011;8264;48.510;8.872;2023-04-08T13:34:31;11.23;;;9.80;;
16310;SDS011;8264;48.510;8.872;2023-04-08T13:36:59;11.03;;;8.93;;
16310;SDS011;8264;48.510;8.872;2023-04-08T13:39:26;11.93;;;9.73;;
16310;SDS011;8264;48.510;8.872;2023-04-08T13:41:52;15.83;;;10.43;;
16310;SDS011;8264;48.510;8.872;2023-04-08T13:44:19;10.80;;;9.10;;
16310;SDS011;8264;48.510;8.872;2023-04-08T13:46:45;11.23;;;9.10;;
16310;SDS011;8264;48.510;8.872;2023-04-08T13:49:11;12.23;;;9.00;;
16310;SDS011;8264;48.510;8.872;2023-04-08T13:51:38;10.53;;;9.43;;
16310;SDS011;8264;48.510;8.872;2023-04-08T13:54:06;10.73;;;9.30;;
16310;SDS011;8264;48.510;8.872;2023-04-08T13:56:33;11.07;;;9.60;;
16310;SDS011;8264;48.510;8.872;2023-04-08T13:58:59;11.83;;;9.47;;
16310;SDS011;8264;48.510;8.872;2023-04-08T14:01:25;10.23;;;9.10;;
16310;SDS011;8264;48.510;8.872;2023-04-08T14:03:52;12.30;;;8.77;;
16310;SDS011;8264;48.510;8.872;2023-04-08T14:06:18;11.37;;;10.23;;
16310;SDS011;8264;48.510;8.872;2023-04-08T14:08:45;13.97;;;8.63;;
16310;SDS011;8264;48.510;8.872;2023-04-08T14:11:13;11.53;;;9.03;;
16310;SDS011;8264;48.510;8.872;2023-04-08T14:13:39;11.77;;;10.37;;
16310;SDS011;8264;48.510;8.872;2023-04-08T14:16:06;11.10;;;8.80;;
16310;SDS011;8264;48.510;8.872;2023-04-08T14:18:32;10.23;;;8.67;;
16310;SDS011;8264;48.510;8.872;2023-04-08T14:20:59;11.13;;;9.50;;
16310;SDS011;8264;48.510;8.872;2023-04-08T14:23:26;11.43;;;9.03;;
16310;SDS011;8264;48.510;8.872;2023-04-08T14:25:53;10.67;;;9.00;;
16310;SDS011;8264;48.510;8.872;2023-04-08T14:28:21;10.67;;;9.53;;
16310;SDS011;8264;48.510;8.872;2023-04-08T14:30:47;8.47;;;7.57;;
16310;SDS011;8264;48.510;8.872;2023-04-08T14:33:14;12.17;;;9.10;;
16310;SDS011;8264;48.510;8.872;2023-04-08T14:35:40;10.63;;;9.17;;
16310;SDS011;8264;48.510;8.872;2023-04-08T14:38:07;12.43;;;9.20;;
16310;SDS011;8264;48.510;8.872;2023-04-08T14:40:33;11.13;;;8.70;;
16310;SDS011;8264;48.510;8.872;2023-04-08T14:43:00;10.23;;;8.80;;
16310;SDS011;8264;48.510;8.872;2023-04-08T14:45:27;11.87;;;8.93;;
16310;SDS011;8264;48.510;8.872;2023-04-08T14:47:55;16.33;;;9.87;;
16310;SDS011;8264;48.510;8.872;2023-04-08T14:50:21;10.07;;;9.00;;
16310;SDS011;8264;48.510;8.872;2023-04-08T14:52:48;12.10;;;9.43;;
16310;SDS011;8264;48.510;8.872;2023-04-08T14:55:14;14.77;;;8.83;;
16310;SDS011;8264;48.510;8.872;2023-04-08T14:57:41;13.40;;;10.00;;
16310;SDS011;8264;48.510;8.872;2023-04-08T15:00:08;12.53;;;8.77;;